Time;durP1;ratioP1;P1;durP2;ratioP2;P2;SDS_P1;SDS_P2;PMS_P1;PMS_P2;Temp;Humidity;BMP_temperature;BMP_pressure;BME280_temperature;BME280_humidity;BME280_pressure;Samples;Min_cycle;Max_cycle;Signal;HPM_P1;HPM_P2
2022/01/17 00:01:12;;;;;;;11.67;8.93;;;4.10;85.80;;;;;;4920994;29;20494;-51
2022/01/17 00:03:40;;;;;;;18.00;11.37;;;4.10;86.20;;;;;;4924380;29;20465;-51
2022/01/17 00:06:07;;;;;;;16.27;11.00;;;4.10;86.30;;;;;;4924476;29;20494;-51
2022/01/17 00:08:40;;;;;;;16.33;10.07;;;4.10;86.30;;;;;;4922885;29;20473;-51
2022/01/17 00:11:08;;;;;;;15.37;10.30;;;4.20;86.50;;;;;;4922796;29;20466;-51
2022/01/17 00:13:35;;;;;;;16.70;11.20;;;4.20;86.30;;;;;;4923884;29;20465;-52
2022/01/17 00:16:12;;;;;;;17.40;10.30;;;4.20;86.20;;;;;;4924492;29;20461;-51
2022/01/17 00:21:09;;;;;;;16.63;10.50;;;4.20;86.00;;;;;;4924818;29;20528;-52
2022/01/17 00:23:36;;;;;;;15.47;9.60;;;4.20;85.90;;;;;;4922729;29;20493;-52
2022/01/17 00:26:04;;;;;;;21.60;11.30;;;4.20;86.20;;;;;;4910215;29;20457;-52
2022/01/17 00:28:31;;;;;;;15.50;11.20;;;4.30;85.90;;;;;;4912001;29;20490;-51
2022/01/17 00:31:04;;;;;;;16.53;9.90;;;4.30;85.80;;;;;;4921192;29;20469;-51
2022/01/17 00:33:33;;;;;;;17.63;11.23;;;4.30;86.00;;;;;;4922488;29;20449;-52
2022/01/17 00:36:00;;;;;;;14.67;10.20;;;4.20;85.90;;;;;;4928777;29;20456;-51
2022/01/17 00:38:27;;;;;;;17.20;10.20;;;4.20;86.30;;;;;;4928598;29;20463;-52
2022/01/17 00:40:54;;;;;;;15.70;10.00;;;4.30;86.00;;;;;;4914451;29;20573;-52
2022/01/17 00:43:21;;;;;;;15.80;9.40;;;4.30;86.00;;;;;;4923563;29;20464;-52
2022/01/17 00:45:48;;;;;;;13.03;9.20;;;4.30;86.00;;;;;;4920270;29;20536;-51
2022/01/17 00:48:15;;;;;;;14.70;9.13;;;4.30;85.90;;;;;;4920601;29;20460;-51
2022/01/17 00:50:42;;;;;;;12.30;8.87;;;4.30;85.70;;;;;;4923932;29;20538;-51
2022/01/17 00:53:11;;;;;;;11.07;7.83;;;4.30;85.60;;;;;;4923426;29;20554;-52
2022/01/17 00:55:38;;;;;;;17.50;11.23;;;4.30;85.60;;;;;;4924533;29;20468;-52
2022/01/17 00:58:06;;;;;;;13.77;8.67;;;4.30;85.60;;;;;;4899650;29;20482;-51
2022/01/17 01:00:33;;;;;;;19.13;11.13;;;4.30;85.60;;;;;;4922901;29;20588;-51
2022/01/17 01:03:00;;;;;;;15.43;9.53;;;4.40;85.50;;;;;;4926393;29;20464;-52
2022/01/17 01:05:27;;;;;;;17.90;10.27;;;4.40;85.30;;;;;;4939023;29;20508;-52
2022/01/17 01:07:54;;;;;;;18.10;10.47;;;4.30;85.40;;;;;;4922693;29;20489;-52
2022/01/17 01:10:21;;;;;;;13.67;8.97;;;4.40;85.40;;;;;;4922359;29;20543;-51
2022/01/17 01:12:50;;;;;;;15.87;10.37;;;4.30;85.40;;;;;;4921417;29;20468;-52
2022/01/17 01:18:16;;;;;;;17.30;10.20;;;4.30;85.30;;;;;;4926415;29;20466;-52
2022/01/17 01:28:46;;;;;;;16.10;10.73;;;4.30;85.60;;;;;;4921464;29;21036;-52
2022/01/17 01:31:18;;;;;;;20.10;11.57;;;4.30;85.30;;;;;;4922793;29;20460;-52
2022/01/17 01:33:52;;;;;;;15.40;10.47;;;4.30;85.40;;;;;;4925600;29;20520;-48
2022/01/17 01:36:26;;;;;;;16.40;9.07;;;4.30;85.50;;;;;;4922712;29;20674;-48
2022/01/17 01:38:53;;;;;;;20.23;11.87;;;4.30;85.70;;;;;;4934695;28;20469;-48
2022/01/17 01:41:20;;;;;;;16.50;10.03;;;4.20;85.70;;;;;;4923034;29;20500;-47
2022/01/17 01:43:48;;;;;;;15.07;10.80;;;4.20;85.80;;;;;;4909399;29;20831;-49
2022/01/17 01:46:18;;;;;;;19.07;9.63;;;4.20;85.80;;;;;;4920206;29;20551;-48
2022/01/17 01:48:46;;;;;;;16.00;9.80;;;4.20;85.70;;;;;;4912536;29;20460;-48
2022/01/17 01:51:14;;;;;;;16.40;9.73;;;4.30;85.70;;;;;;4923568;29;20462;-48
2022/01/17 01:53:42;;;;;;;14.77;9.00;;;4.30;85.70;;;;;;4925894;29;20551;-48
2022/01/17 01:56:08;;;;;;;12.60;9.20;;;4.30;85.40;;;;;;4924390;29;20459;-48
2022/01/17 01:58:35;;;;;;;14.80;9.30;;;4.30;85.60;;;;;;4924184;29;20471;-48
2022/01/17 02:01:02;;;;;;;13.37;9.60;;;4.30;85.30;;;;;;4920153;29;20476;-49
2022/01/17 02:03:29;;;;;;;15.40;10.20;;;4.30;85.20;;;;;;4920324;29;20445;-48
2022/01/17 02:05:56;;;;;;;17.93;9.87;;;4.20;85.50;;;;;;4918331;29;20508;-49
2022/01/17 02:08:23;;;;;;;14.60;9.03;;;4.20;86.00;;;;;;4920536;29;20464;-48
2022/01/17 02:10:50;;;;;;;17.50;8.83;;;4.20;86.40;;;;;;4911079;29;20576;-48
2022/01/17 02:13:17;;;;;;;10.30;7.50;;;4.20;86.40;;;;;;4918988;29;20465;-48
2022/01/17 02:15:48;;;;;;;12.13;9.20;;;4.30;86.30;;;;;;4919210;29;20858;-48
2022/01/17 02:18:22;;;;;;;11.40;8.60;;;4.30;85.70;;;;;;4924277;29;20526;-49
2022/01/17 02:21:10;;;;;;;13.20;9.37;;;4.30;85.60;;;;;;4922856;29;20498;-48
2022/01/17 02:23:36;;;;;;;14.13;9.63;;;4.40;85.30;;;;;;4919877;29;20496;-48
2022/01/17 02:26:03;;;;;;;13.50;8.87;;;4.40;84.80;;;;;;4912096;29;20817;-48
2022/01/17 02:28:33;;;;;;;12.17;9.13;;;4.40;84.70;;;;;;4924852;29;20547;-47
2022/01/17 02:31:01;;;;;;;17.53;9.77;;;4.30;84.40;;;;;;4921379;29;20832;-48
2022/01/17 02:33:28;;;;;;;14.10;9.87;;;4.30;84.70;;;;;;4904750;29;20870;-48
2022/01/17 02:35:55;;;;;;;16.97;10.43;;;4.20;85.00;;;;;;4918517;29;20449;-48
2022/01/17 02:38:23;;;;;;;11.33;8.63;;;4.20;85.30;;;;;;4920908;29;20556;-48
2022/01/17 02:40:51;;;;;;;12.97;9.00;;;4.20;85.20;;;;;;4921783;29;20547;-47
2022/01/17 02:43:20;;;;;;;12.40;8.87;;;4.20;84.90;;;;;;4919672;29;20467;-48
2022/01/17 02:48:21;;;;;;;13.20;9.00;;;4.20;85.10;;;;;;4919545;29;20464;-48
2022/01/17 02:50:48;;;;;;;11.47;8.40;;;4.20;85.10;;;;;;4912159;29;20452;-48
2022/01/17 02:53:16;;;;;;;13.03;8.60;;;4.20;85.20;;;;;;4924108;29;20468;-48
2022/01/17 02:55:49;;;;;;;14.70;9.07;;;4.10;85.20;;;;;;4926281;29;20542;-48
2022/01/17 02:58:19;;;;;;;13.73;9.30;;;4.10;85.30;;;;;;4918615;29;20920;-48
2022/01/17 03:00:51;;;;;;;10.20;8.30;;;4.10;85.40;;;;;;4921055;29;20448;-47
2022/01/17 03:03:22;;;;;;;11.17;7.57;;;4.10;85.20;;;;;;4937320;29;20939;-48
2022/01/17 03:05:50;;;;;;;12.80;8.00;;;4.10;85.40;;;;;;4936322;28;20469;-48
2022/01/17 03:08:17;;;;;;;11.00;7.37;;;4.10;85.40;;;;;;4924100;29;20468;-49
2022/01/17 03:10:47;;;;;;;10.70;7.37;;;4.00;85.40;;;;;;4913873;29;20464;-49
2022/01/17 03:13:16;;;;;;;11.37;7.90;;;4.00;85.60;;;;;;4928199;29;20969;-48
2022/01/17 03:15:44;;;;;;;12.63;8.33;;;4.00;85.60;;;;;;4927016;29;20470;-47
2022/01/17 03:18:11;;;;;;;10.87;7.73;;;4.00;86.00;;;;;;4921180;29;20471;-48
2022/01/17 03:20:39;;;;;;;12.00;9.83;;;4.00;86.00;;;;;;4922007;29;20464;-48
2022/01/17 03:23:09;;;;;;;9.30;8.07;;;4.00;86.10;;;;;;4911489;29;22260;-48
2022/01/17 03:25:36;;;;;;;11.47;7.60;;;4.10;86.20;;;;;;4924218;29;20472;-47
2022/01/17 03:28:03;;;;;;;9.90;7.53;;;4.10;86.00;;;;;;4926767;29;20456;-48
2022/01/17 03:30:33;;;;;;;11.63;6.87;;;4.10;85.90;;;;;;4914292;29;20488;-48
2022/01/17 03:33:01;;;;;;;13.40;7.73;;;4.10;86.00;;;;;;4923506;29;20500;-48
2022/01/17 03:35:28;;;;;;;10.80;7.27;;;4.00;86.20;;;;;;4913130;29;20464;-48
2022/01/17 03:37:55;;;;;;;13.90;7.80;;;4.10;86.40;;;;;;4925136;29;20463;-50
2022/01/17 03:40:22;;;;;;;9.20;6.77;;;4.10;86.50;;;;;;4927452;29;20979;-50
2022/01/17 03:42:49;;;;;;;10.07;7.03;;;4.10;86.60;;;;;;4941508;28;20502;-51
2022/01/17 03:45:16;;;;;;;9.10;7.57;;;4.10;86.80;;;;;;4928544;29;20462;-50
2022/01/17 03:47:47;;;;;;;9.70;6.60;;;4.10;86.80;;;;;;4928661;29;20470;-51
2022/01/17 03:50:18;;;;;;;11.70;7.40;;;4.20;86.70;;;;;;4926659;29;20462;-51
2022/01/17 03:52:44;;;;;;;12.47;7.70;;;4.20;86.60;;;;;;4925699;29;20467;-51
2022/01/17 03:55:14;;;;;;;9.73;6.30;;;4.20;86.80;;;;;;4924223;29;20480;-50
2022/01/17 03:57:43;;;;;;;8.00;6.53;;;4.20;86.50;;;;;;4926806;29;21029;-50
2022/01/17 04:00:19;;;;;;;11.27;7.17;;;4.20;86.50;;;;;;4928755;29;20523;-51
2022/01/17 04:02:47;;;;;;;10.30;6.57;;;4.10;86.40;;;;;;4915832;29;20857;-51
2022/01/17 04:05:14;;;;;;;10.93;6.57;;;4.10;86.40;;;;;;4927313;29;20456;-50
2022/01/17 04:07:41;;;;;;;9.83;6.37;;;4.10;86.50;;;;;;4915509;29;20484;-50
2022/01/17 04:10:08;;;;;;;9.90;7.03;;;4.10;86.40;;;;;;4926431;29;20487;-50
2022/01/17 04:12:35;;;;;;;7.10;5.70;;;4.00;86.60;;;;;;4927794;29;21087;-49
2022/01/17 04:15:03;;;;;;;11.20;6.80;;;4.10;86.60;;;;;;4924515;29;20531;-51
2022/01/17 04:17:30;;;;;;;11.87;7.60;;;4.10;86.30;;;;;;4926328;29;20466;-51
2022/01/17 04:20:04;;;;;;;10.10;6.70;;;4.10;86.20;;;;;;4912939;29;20457;-50
2022/01/17 04:22:36;;;;;;;11.87;7.80;;;4.00;86.40;;;;;;4924902;29;20506;-51
2022/01/17 04:25:04;;;;;;;11.30;7.33;;;4.10;86.30;;;;;;4915435;29;20466;-50
2022/01/17 04:27:32;;;;;;;8.93;5.77;;;4.00;86.30;;;;;;4908311;29;20463;-52
2022/01/17 04:29:59;;;;;;;9.33;6.40;;;4.00;86.30;;;;;;4927312;29;20452;-49
2022/01/17 04:32:26;;;;;;;9.50;6.07;;;4.00;86.60;;;;;;4917000;29;20986;-50
2022/01/17 04:34:55;;;;;;;9.97;6.47;;;4.00;86.60;;;;;;4927039;29;20655;-50
2022/01/17 04:37:21;;;;;;;11.07;7.20;;;4.00;86.70;;;;;;4931243;29;20452;-50
2022/01/17 04:39:48;;;;;;;9.60;6.83;;;3.90;87.00;;;;;;4928753;29;20834;-49
2022/01/17 04:42:17;;;;;;;8.80;6.60;;;4.00;87.00;;;;;;4929284;29;20503;-50
2022/01/17 04:47:31;;;;;;;8.70;6.33;;;4.00;87.00;;;;;;4927348;29;20460;-51
2022/01/17 04:49:58;;;;;;;8.40;5.60;;;4.10;87.00;;;;;;4931400;29;20915;-50
2022/01/17 04:52:26;;;;;;;8.53;5.67;;;4.10;86.90;;;;;;4925389;29;20469;-50
2022/01/17 04:54:55;;;;;;;6.60;5.03;;;4.10;86.90;;;;;;4921360;29;20463;-51
2022/01/17 04:57:22;;;;;;;7.20;4.77;;;4.10;86.90;;;;;;4923100;29;20544;-50
2022/01/17 04:59:52;;;;;;;6.80;5.00;;;4.20;86.90;;;;;;4932087;29;21097;-48
2022/01/17 05:02:19;;;;;;;6.27;5.07;;;4.20;87.00;;;;;;4926039;29;20485;-48
2022/01/17 05:04:46;;;;;;;9.00;5.57;;;4.10;87.20;;;;;;4938821;28;20457;-48
2022/01/17 05:07:14;;;;;;;9.10;5.57;;;4.10;87.40;;;;;;4920747;29;20455;-48
2022/01/17 05:09:45;;;;;;;8.20;4.90;;;4.20;87.30;;;;;;4913871;29;21312;-48
2022/01/17 05:12:13;;;;;;;9.10;5.30;;;4.20;87.20;;;;;;4923441;29;20554;-48
2022/01/17 05:14:42;;;;;;;7.77;5.80;;;4.20;87.10;;;;;;4908733;29;20456;-50
2022/01/17 05:19:57;;;;;;;5.23;4.47;;;4.30;86.80;;;;;;4928282;29;20468;-50
2022/01/17 05:22:32;;;;;;;6.80;4.93;;;4.30;86.60;;;;;;4925251;29;20499;-50
2022/01/17 05:25:01;;;;;;;8.47;5.17;;;4.30;86.70;;;;;;4912321;29;20591;-49
2022/01/17 05:27:28;;;;;;;5.10;4.37;;;4.40;86.60;;;;;;4943661;28;20551;-50
2022/01/17 05:29:54;;;;;;;7.97;5.03;;;4.40;86.60;;;;;;4923798;29;20851;-49
2022/01/17 05:32:21;;;;;;;6.53;4.80;;;4.40;86.40;;;;;;4925324;29;20472;-50
2022/01/17 05:34:50;;;;;;;8.53;6.47;;;4.50;86.40;;;;;;4911651;29;20493;-49
2022/01/17 05:37:17;;;;;;;7.23;5.63;;;4.50;86.40;;;;;;4923394;29;20463;-48
2022/01/17 05:39:43;;;;;;;7.50;6.77;;;4.50;86.40;;;;;;4920678;29;20460;-48
2022/01/17 05:42:17;;;;;;;7.03;5.23;;;4.50;86.30;;;;;;4922168;29;20506;-48
2022/01/17 05:44:46;;;;;;;7.20;5.50;;;4.60;86.30;;;;;;4936470;28;20829;-47
2022/01/17 05:47:14;;;;;;;10.90;6.30;;;4.60;86.20;;;;;;4904197;29;20478;-48
2022/01/17 05:49:41;;;;;;;8.90;5.10;;;4.60;86.20;;;;;;4919654;29;20460;-48
2022/01/17 05:52:09;;;;;;;8.27;5.80;;;4.60;86.30;;;;;;4909513;29;20469;-48
2022/01/17 05:54:36;;;;;;;9.37;5.30;;;4.60;86.30;;;;;;4909172;29;20839;-48
2022/01/17 05:57:03;;;;;;;15.30;10.13;;;4.70;86.00;;;;;;4910108;29;20475;-48
2022/01/17 05:59:30;;;;;;;9.70;7.03;;;4.70;85.80;;;;;;4922869;29;20643;-48
2022/01/17 06:01:57;;;;;;;6.63;5.20;;;4.70;85.70;;;;;;4919621;29;21005;-48
2022/01/17 06:04:24;;;;;;;6.53;4.77;;;4.70;85.60;;;;;;4923323;29;20492;-48
2022/01/17 06:06:51;;;;;;;9.97;5.30;;;4.70;85.60;;;;;;4909422;29;20464;-48
2022/01/17 06:09:18;;;;;;;6.20;4.70;;;4.70;85.60;;;;;;4920505;29;20950;-48
2022/01/17 06:11:45;;;;;;;7.30;4.97;;;4.70;86.00;;;;;;4924575;29;20832;-47
2022/01/17 06:14:16;;;;;;;6.00;4.93;;;4.70;86.00;;;;;;4920611;29;20483;-47
2022/01/17 06:16:45;;;;;;;7.00;4.97;;;4.70;85.90;;;;;;4925869;29;20469;-49
2022/01/17 06:19:13;;;;;;;6.40;4.83;;;4.70;85.80;;;;;;4928138;29;20452;-48
2022/01/17 06:21:40;;;;;;;6.73;5.30;;;4.70;85.90;;;;;;4923983;29;20464;-49
2022/01/17 06:24:09;;;;;;;6.07;4.73;;;4.70;86.10;;;;;;4922203;29;20495;-49
2022/01/17 06:26:38;;;;;;;6.53;5.20;;;4.70;86.30;;;;;;4911619;29;20467;-48
2022/01/17 06:29:06;;;;;;;4.73;4.33;;;4.70;86.00;;;;;;4919896;29;20814;-47
2022/01/17 06:31:34;;;;;;;7.23;5.00;;;4.70;86.00;;;;;;4922405;29;20809;-48
2022/01/17 06:34:02;;;;;;;6.40;5.00;;;4.70;86.20;;;;;;4923581;29;20460;-48
2022/01/17 06:36:29;;;;;;;6.77;4.80;;;4.70;86.20;;;;;;4913130;29;20816;-48
2022/01/17 06:38:56;;;;;;;9.27;5.10;;;4.70;86.20;;;;;;4922852;29;20471;-48
2022/01/17 06:41:23;;;;;;;9.53;5.00;;;4.80;86.10;;;;;;4923034;29;20460;-47
2022/01/17 06:43:51;;;;;;;5.43;4.30;;;4.80;85.90;;;;;;4925159;28;20579;-48
2022/01/17 06:46:18;;;;;;;8.10;5.20;;;4.90;85.80;;;;;;4922495;29;20453;-48
2022/01/17 06:48:48;;;;;;;6.70;4.83;;;4.90;85.70;;;;;;4923640;29;20511;-48
2022/01/17 06:51:15;;;;;;;6.80;4.83;;;4.90;85.70;;;;;;4925677;29;20467;-47
2022/01/17 06:53:42;;;;;;;8.03;4.10;;;5.00;85.50;;;;;;4927152;29;20456;-48
2022/01/17 06:56:10;;;;;;;9.53;4.67;;;4.90;85.70;;;;;;4929688;29;20965;-48
2022/01/17 06:58:40;;;;;;;6.57;4.57;;;5.00;85.60;;;;;;4926037;29;20474;-48
2022/01/17 07:01:07;;;;;;;7.50;5.20;;;5.00;85.60;;;;;;4914338;29;20479;-48
2022/01/17 07:03:34;;;;;;;5.03;4.53;;;5.00;85.50;;;;;;4925516;29;20583;-48
2022/01/17 07:06:01;;;;;;;8.43;5.10;;;5.00;85.70;;;;;;4924046;29;20465;-49
2022/01/17 07:08:28;;;;;;;6.10;4.20;;;5.00;85.50;;;;;;4924482;29;20463;-48
2022/01/17 07:10:55;;;;;;;7.03;5.43;;;5.00;85.80;;;;;;4925165;29;20913;-48
2022/01/17 07:13:22;;;;;;;7.37;4.80;;;5.00;85.70;;;;;;4942140;29;20494;-48
2022/01/17 07:15:49;;;;;;;5.73;4.57;;;5.10;85.50;;;;;;4923503;29;20460;-48
2022/01/17 07:18:16;;;;;;;7.50;4.93;;;5.10;85.40;;;;;;4926486;29;20465;-48
2022/01/17 07:20:50;;;;;;;8.13;4.60;;;5.10;85.20;;;;;;4925052;29;20805;-49
2022/01/17 07:23:17;;;;;;;7.50;5.17;;;5.20;85.20;;;;;;4927550;29;20500;-48
2022/01/17 07:25:43;;;;;;;5.00;4.27;;;5.20;85.20;;;;;;4924419;29;20953;-47
2022/01/17 07:28:12;;;;;;;8.70;6.17;;;5.20;85.40;;;;;;4927035;29;20472;-48
2022/01/17 07:30:39;;;;;;;7.10;4.90;;;5.20;85.10;;;;;;4925053;29;20464;-48
2022/01/17 07:33:07;;;;;;;12.87;8.47;;;5.20;85.20;;;;;;4926829;29;20459;-49
2022/01/17 07:35:35;;;;;;;8.50;6.67;;;5.20;85.10;;;;;;4925672;29;20461;-47
2022/01/17 07:38:01;;;;;;;7.23;5.13;;;5.20;85.10;;;;;;4943260;28;20832;-47
2022/01/17 07:40:29;;;;;;;7.77;5.17;;;5.30;84.90;;;;;;4922809;29;20457;-48
2022/01/17 07:42:56;;;;;;;7.67;5.10;;;5.30;84.80;;;;;;4926850;29;20494;-47
2022/01/17 07:45:26;;;;;;;8.03;5.80;;;5.30;84.90;;;;;;4912517;29;20705;-47
2022/01/17 07:50:22;;;;;;;7.60;4.90;;;5.40;84.40;;;;;;4924245;29;20461;-48
2022/01/17 07:52:51;;;;;;;8.67;5.33;;;5.40;84.30;;;;;;4926331;29;20467;-48
2022/01/17 07:55:20;;;;;;;6.43;4.60;;;5.40;84.10;;;;;;4931187;28;20467;-48
2022/01/17 07:57:47;;;;;;;6.50;5.20;;;5.40;84.30;;;;;;4922716;29;20469;-48
2022/01/17 08:00:22;;;;;;;7.30;5.30;;;5.40;84.20;;;;;;4922499;29;21003;-48
2022/01/17 08:02:56;;;;;;;6.27;4.40;;;5.40;84.20;;;;;;4923674;29;20495;-47
2022/01/17 08:05:24;;;;;;;9.97;5.00;;;5.50;84.20;;;;;;4920683;29;20464;-47
2022/01/17 08:07:53;;;;;;;7.50;5.30;;;5.50;84.20;;;;;;4921486;29;20468;-48
2022/01/17 08:10:20;;;;;;;9.73;6.27;;;5.50;84.00;;;;;;4922065;29;20479;-48
2022/01/17 08:12:47;;;;;;;8.37;5.23;;;5.60;83.80;;;;;;4925538;29;20472;-49
2022/01/17 08:15:16;;;;;;;7.20;4.63;;;5.60;83.50;;;;;;4927423;29;20471;-48
2022/01/17 08:17:45;;;;;;;7.37;5.30;;;5.60;83.40;;;;;;4924166;29;20523;-48
2022/01/17 08:20:14;;;;;;;6.37;4.80;;;5.60;83.80;;;;;;4921106;29;20468;-48
2022/01/17 08:22:43;;;;;;;7.60;5.10;;;5.60;83.70;;;;;;4908686;29;20496;-48
2022/01/17 08:25:11;;;;;;;7.23;4.80;;;5.60;83.40;;;;;;4923969;29;20452;-48
2022/01/17 08:27:38;;;;;;;7.37;4.90;;;5.70;83.30;;;;;;4924653;29;20468;-48
2022/01/17 08:30:05;;;;;;;7.20;5.30;;;5.70;83.40;;;;;;4925512;29;20463;-49
2022/01/17 08:32:52;;;;;;;7.17;5.27;;;5.70;83.40;;;;;;4924114;29;20461;-48
2022/01/17 08:35:20;;;;;;;8.30;5.33;;;5.70;83.50;;;;;;4918396;29;20496;-47
2022/01/17 08:37:47;;;;;;;8.83;5.53;;;5.70;83.50;;;;;;4906368;29;20481;-48
2022/01/17 08:40:15;;;;;;;6.57;4.37;;;5.70;83.40;;;;;;4911204;29;20841;-48
2022/01/17 08:43:09;;;;;;;6.20;4.50;;;5.70;83.30;;;;;;4924715;29;20479;-48
2022/01/17 08:45:36;;;;;;;7.47;4.33;;;5.70;83.30;;;;;;4925664;29;20464;-48
2022/01/17 08:48:12;;;;;;;5.57;5.00;;;5.70;83.40;;;;;;4922618;29;20465;-48
2022/01/17 08:50:41;;;;;;;7.60;5.30;;;5.80;83.50;;;;;;4925750;29;20567;-49
2022/01/17 08:53:10;;;;;;;10.80;5.97;;;5.80;82.90;;;;;;4924643;29;20464;-49
2022/01/17 08:55:37;;;;;;;7.27;5.67;;;5.80;82.90;;;;;;4906700;29;20521;-47
2022/01/17 08:58:07;;;;;;;7.07;5.57;;;5.80;82.80;;;;;;4926058;29;20551;-48
2022/01/17 09:00:34;;;;;;;7.87;5.30;;;5.80;82.70;;;;;;4926951;29;20822;-48
2022/01/17 09:03:19;;;;;;;7.67;5.43;;;5.80;83.00;;;;;;4911948;29;20582;-47
2022/01/17 09:05:48;;;;;;;7.70;5.37;;;5.80;83.20;;;;;;4924640;29;20457;-48
2022/01/17 09:08:16;;;;;;;9.50;5.60;;;5.80;83.50;;;;;;4922279;29;20457;-48
2022/01/17 09:10:43;;;;;;;9.23;5.90;;;5.80;83.00;;;;;;4920580;29;20492;-48
2022/01/17 09:13:11;;;;;;;8.63;5.47;;;5.80;83.00;;;;;;4924651;29;20465;-48
2022/01/17 09:15:38;;;;;;;7.73;5.40;;;5.80;83.00;;;;;;4921410;29;20806;-48
2022/01/17 09:18:06;;;;;;;7.17;5.47;;;5.80;83.00;;;;;;4909473;29;20551;-48
2022/01/17 09:20:34;;;;;;;7.03;4.90;;;5.80;82.80;;;;;;4911146;29;20468;-48
2022/01/17 09:23:03;;;;;;;7.33;5.50;;;5.90;82.60;;;;;;4926531;29;20878;-48
2022/01/17 09:25:30;;;;;;;9.80;5.10;;;5.90;82.60;;;;;;4910307;29;20803;-48
2022/01/17 09:27:58;;;;;;;7.87;5.17;;;5.90;82.70;;;;;;4923790;29;20550;-49
2022/01/17 09:30:25;;;;;;;7.90;5.47;;;5.90;82.40;;;;;;4910779;29;20448;-49
2022/01/17 09:32:51;;;;;;;8.43;4.77;;;5.90;82.60;;;;;;4918735;29;20475;-48
2022/01/17 09:35:18;;;;;;;9.37;4.70;;;5.90;82.70;;;;;;4923711;29;20460;-48
2022/01/17 09:37:45;;;;;;;5.37;4.73;;;5.90;82.80;;;;;;4921359;29;20958;-48
2022/01/17 09:40:12;;;;;;;8.87;5.60;;;6.00;82.70;;;;;;4924183;29;20536;-48
2022/01/17 09:42:39;;;;;;;5.70;4.40;;;6.00;82.70;;;;;;4921186;29;21010;-48
2022/01/17 09:45:11;;;;;;;6.63;5.20;;;6.00;82.70;;;;;;4924072;29;20798;-48
2022/01/17 09:47:40;;;;;;;8.17;5.10;;;6.00;82.80;;;;;;4921540;29;20462;-49
2022/01/17 09:50:13;;;;;;;7.83;5.23;;;6.10;82.30;;;;;;4923546;29;21012;-49
2022/01/17 09:52:46;;;;;;;5.50;4.60;;;6.10;82.30;;;;;;4919416;29;20460;-49
2022/01/17 09:55:21;;;;;;;7.47;4.57;;;6.10;82.60;;;;;;4920790;29;20553;-48
2022/01/17 09:57:51;;;;;;;8.73;4.40;;;6.20;82.10;;;;;;4921259;29;20450;-48
2022/01/17 10:00:24;;;;;;;5.00;4.50;;;6.20;82.00;;;;;;4920989;29;20545;-48
2022/01/17 10:02:56;;;;;;;7.20;5.00;;;6.20;81.80;;;;;;4921683;29;20496;-48
2022/01/17 10:05:24;;;;;;;6.83;5.43;;;6.20;81.90;;;;;;4922966;29;20502;-48
2022/01/17 10:08:04;;;;;;;8.20;5.07;;;6.20;81.80;;;;;;4922223;29;20458;-48
2022/01/17 10:10:36;;;;;;;7.97;5.33;;;6.30;81.70;;;;;;4921983;29;20548;-48
2022/01/17 10:13:10;;;;;;;7.43;5.17;;;6.30;82.00;;;;;;4922318;29;20832;-48
2022/01/17 10:15:48;;;;;;;8.97;5.77;;;6.40;81.50;;;;;;4910404;29;20488;-49
2022/01/17 10:18:41;;;;;;;7.30;4.90;;;6.40;81.30;;;;;;4923522;29;20773;-49
2022/01/17 10:21:26;;;;;;;6.70;6.07;;;6.40;81.60;;;;;;4922943;29;20468;-49
2022/01/17 10:24:14;;;;;;;6.97;5.90;;;6.40;81.80;;;;;;4901732;29;20851;-49
2022/01/17 10:34:53;;;;;;;10.60;5.00;;;6.50;80.80;;;;;;4921205;29;20903;-48
2022/01/17 10:37:23;;;;;;;10.60;5.60;;;6.50;81.00;;;;;;4909091;29;20562;-48
2022/01/17 10:39:59;;;;;;;7.90;5.00;;;6.50;81.20;;;;;;4925428;29;20463;-49
2022/01/17 10:42:42;;;;;;;5.50;4.20;;;6.60;81.10;;;;;;4925838;29;20534;-49
2022/01/17 10:45:15;;;;;;;8.27;5.37;;;6.60;80.70;;;;;;4934690;28;20930;-48
2022/01/17 10:47:46;;;;;;;6.77;5.10;;;6.60;80.60;;;;;;4910377;29;20830;-48
2022/01/17 10:50:13;;;;;;;6.33;4.60;;;6.60;80.30;;;;;;4921762;29;20484;-49
2022/01/17 10:52:52;;;;;;;8.60;5.17;;;6.60;80.80;;;;;;4919885;29;20551;-49
2022/01/17 10:55:29;;;;;;;7.70;4.97;;;6.60;80.30;;;;;;4918174;29;20460;-48
2022/01/17 10:58:02;;;;;;;4.93;4.03;;;6.60;80.20;;;;;;4919528;29;20804;-49
2022/01/17 11:00:32;;;;;;;9.90;5.43;;;6.60;80.40;;;;;;4923951;29;20468;-49
2022/01/17 11:03:02;;;;;;;8.17;4.90;;;6.60;80.60;;;;;;4937851;28;20506;-48
2022/01/17 11:05:31;;;;;;;5.27;4.23;;;6.60;80.40;;;;;;4927100;29;20926;-49
2022/01/17 11:08:01;;;;;;;5.10;3.70;;;6.70;80.40;;;;;;4919694;29;20840;-48
2022/01/17 11:10:36;;;;;;;6.37;4.27;;;6.70;80.00;;;;;;4919963;29;20544;-48
2022/01/17 11:13:05;;;;;;;6.87;5.00;;;6.70;80.30;;;;;;4922778;29;20981;-48
2022/01/17 11:15:34;;;;;;;6.47;4.27;;;6.70;80.40;;;;;;4920292;29;20476;-48
2022/01/17 11:18:08;;;;;;;9.57;5.70;;;6.70;80.50;;;;;;4920752;29;20455;-48
2022/01/17 11:20:35;;;;;;;9.30;5.23;;;6.80;80.60;;;;;;4921740;29;20962;-48
2022/01/17 11:23:03;;;;;;;5.47;4.30;;;6.80;80.20;;;;;;4921639;29;20483;-48
2022/01/17 11:25:36;;;;;;;6.13;5.10;;;6.90;80.30;;;;;;4922265;29;20460;-48
2022/01/17 11:28:05;;;;;;;5.93;4.27;;;6.90;80.00;;;;;;4921909;29;20452;-48
2022/01/17 11:30:34;;;;;;;5.77;4.20;;;6.90;79.60;;;;;;4922735;29;20490;-48
2022/01/17 11:33:04;;;;;;;6.93;5.10;;;6.90;79.60;;;;;;4926118;29;20456;-48
2022/01/17 11:35:42;;;;;;;7.70;5.50;;;6.90;80.00;;;;;;4922348;29;20498;-49
2022/01/17 11:38:12;;;;;;;6.90;4.90;;;6.90;80.00;;;;;;4922813;29;20490;-48
2022/01/17 11:40:42;;;;;;;6.17;5.47;;;7.00;79.60;;;;;;4925618;29;20467;-48
2022/01/17 11:43:34;;;;;;;4.93;4.40;;;7.00;79.60;;;;;;4914668;29;20672;-47
2022/01/17 11:46:28;;;;;;;5.23;4.37;;;7.00;79.90;;;;;;4926262;29;20464;-47
2022/01/17 11:48:58;;;;;;;5.97;4.23;;;7.10;79.70;;;;;;4921721;29;20467;-48
2022/01/17 11:51:44;;;;;;;7.27;4.13;;;7.10;80.20;;;;;;4925011;29;20452;-48
2022/01/17 11:54:22;;;;;;;6.07;4.87;;;7.20;79.20;;;;;;4937809;29;20465;-48
2022/01/17 11:56:57;;;;;;;6.70;4.73;;;7.20;79.50;;;;;;4920823;29;20472;-48
2022/01/17 11:59:27;;;;;;;5.53;3.97;;;7.30;79.70;;;;;;4937393;29;21032;-48
2022/01/17 12:02:20;;;;;;;7.33;4.93;;;7.40;79.70;;;;;;4922542;29;20467;-49
2022/01/17 12:05:08;;;;;;;7.63;5.10;;;7.50;79.00;;;;;;4922889;29;20937;-48
2022/01/17 12:07:43;;;;;;;4.90;4.37;;;7.70;78.30;;;;;;4913618;29;20461;-47
2022/01/17 12:10:14;;;;;;;3.77;3.43;;;7.80;78.80;;;;;;4923937;29;20539;-48
2022/01/17 12:12:42;;;;;;;7.10;4.00;;;7.90;78.30;;;;;;4925351;29;20551;-48
2022/01/17 12:15:16;;;;;;;8.60;4.50;;;8.00;77.50;;;;;;4921937;29;20465;-48
2022/01/17 12:18:28;;;;;;;5.60;4.53;;;8.00;77.10;;;;;;4923206;29;20450;-48
2022/01/17 12:20:55;;;;;;;5.30;4.60;;;8.00;77.00;;;;;;4926061;29;20471;-49
2022/01/17 12:23:25;;;;;;;5.27;3.90;;;8.10;76.80;;;;;;4923415;29;20495;-48
2022/01/17 12:25:51;;;;;;;5.93;5.27;;;8.10;76.80;;;;;;4925401;29;20547;-48
2022/01/17 12:28:18;;;;;;;5.20;4.10;;;8.10;76.60;;;;;;4924090;29;20905;-48
2022/01/17 12:31:12;;;;;;;5.97;4.70;;;8.00;77.30;;;;;;4924294;29;20452;-48
2022/01/17 12:33:40;;;;;;;6.30;3.80;;;8.00;76.60;;;;;;4923339;29;20977;-49
2022/01/17 12:36:27;;;;;;;8.17;4.63;;;8.00;76.40;;;;;;4922555;29;20474;-48
2022/01/17 12:39:11;;;;;;;6.63;3.87;;;8.00;76.80;;;;;;4924103;29;20979;-48
2022/01/17 12:41:41;;;;;;;5.90;4.40;;;8.00;76.70;;;;;;4909220;29;20460;-47
2022/01/17 12:44:22;;;;;;;6.43;5.17;;;8.00;76.20;;;;;;4921971;29;20495;-48
2022/01/17 12:46:54;;;;;;;6.13;4.87;;;7.90;76.50;;;;;;4911543;29;20527;-48
2022/01/17 12:49:24;;;;;;;8.53;4.90;;;7.90;76.90;;;;;;4924692;29;20809;-48
2022/01/17 12:51:54;;;;;;;6.00;4.93;;;8.00;77.00;;;;;;4912106;29;21022;-48
2022/01/17 12:54:25;;;;;;;6.30;4.50;;;7.90;76.90;;;;;;4926803;29;20460;-48
2022/01/17 12:56:55;;;;;;;7.40;6.23;;;7.90;76.70;;;;;;4926352;29;20467;-48
2022/01/17 12:59:23;;;;;;;5.20;4.27;;;7.90;76.60;;;;;;4914969;29;20464;-48
2022/01/17 13:02:01;;;;;;;6.70;4.83;;;8.00;75.60;;;;;;4911075;29;20578;-47
2022/01/17 13:04:31;;;;;;;5.00;3.90;;;7.90;76.00;;;;;;4923044;29;20523;-48
2022/01/17 13:06:58;;;;;;;6.47;5.23;;;7.90;76.30;;;;;;4924460;29;20470;-47
2022/01/17 13:09:27;;;;;;;6.97;5.80;;;7.90;76.70;;;;;;4926377;29;20459;-48
2022/01/17 13:12:00;;;;;;;5.90;4.80;;;7.90;76.60;;;;;;4923038;29;20459;-48
2022/01/17 13:14:27;;;;;;;8.07;5.50;;;8.00;76.90;;;;;;4921099;29;20471;-48
2022/01/17 13:16:54;;;;;;;6.40;4.97;;;8.00;76.50;;;;;;4911213;29;20504;-48
2022/01/17 13:19:22;;;;;;;8.80;5.67;;;7.90;76.60;;;;;;4923905;29;20966;-48
2022/01/17 13:21:50;;;;;;;8.10;5.50;;;7.90;76.10;;;;;;4924543;29;20475;-48
2022/01/17 13:24:36;;;;;;;8.67;5.73;;;8.00;76.30;;;;;;4924037;29;20614;-48
2022/01/17 13:27:13;;;;;;;10.63;5.87;;;8.00;76.70;;;;;;4923772;29;20488;-49
2022/01/17 13:29:43;;;;;;;8.30;5.77;;;7.90;76.00;;;;;;4922054;29;20940;-47
2022/01/17 13:32:12;;;;;;;9.87;6.83;;;7.90;76.60;;;;;;4923556;29;20893;-48
2022/01/17 13:34:40;;;;;;;10.13;4.70;;;7.80;76.70;;;;;;4910885;29;20469;-48
2022/01/17 13:37:09;;;;;;;9.43;5.93;;;7.80;77.10;;;;;;4937356;28;20539;-48
2022/01/17 13:39:53;;;;;;;9.00;6.37;;;7.80;77.30;;;;;;4922879;29;20659;-47